Hiyodori — JD2366 — position and weather

sailwx.info

Track history (hours):
 
Tides and Currents Weather Stations Pressure Air Temp Water Temp Dewpoint Dewpoint Depression Visibility Wind Speed Wind Dir Waves Ship Positions

Hiyodori

Last reported at 2017-Oct-18 17:40 UTC. Time now 2017-Oct-18 18:16 UTC.
Position N 35°34' E 139°53'.

Length 88 m; draft 3.6 m.

Type: Cargo ship. MMSI: 431000132.

Date/timePositionNaut miles runAvg speedWind from/ knotsBaromVisibWave heightAir tempDewpointWater temp
2017-Oct-18 17:40N 35°34' E 139°53'0 0.0
2017-Oct-18 17:28N 35°34' E 139°53'0 0.0
2017-Oct-18 16:58N 35°34' E 139°53'0 0.0
2017-Oct-18 16:28N 35°34' E 139°53'0 0.0
2017-Oct-18 15:58N 35°34' E 139°53'0 0.0
2017-Oct-18 15:28N 35°34' E 139°53'0 0.0
2017-Oct-18 12:34N 35°34' E 139°52'0 0.0
2017-Oct-18 12:28N 35°34' E 139°52'0 0.0
2017-Oct-18 11:58N 35°34' E 139°52'0 0.0
2017-Oct-18 11:22N 35°34' E 139°52'0 0.7
2017-Oct-18 11:00N 35°34' E 139°52'510.3
2017-Oct-18 10:30N 35°29' E 139°51'510.2
2017-Oct-18 10:00N 35°25' E 139°47'510.1
2017-Oct-18 09:30N 35°20' E 139°44'510.0
2017-Oct-18 09:00N 35°16' E 139°47'510.8
2017-Oct-18 08:30N 35°10' E 139°46'611.2
2017-Oct-18 08:00N 35°05' E 139°44'611.0
2017-Oct-18 07:30N 35°01' E 139°39'12 0.6
2017-Oct-17 11:26N 34°57' E 139°26'810.1
2017-Oct-17 10:38N 35°02' E 139°33'110.1
2017-Oct-17 10:30N 35°03' E 139°34'5 9.9
2017-Oct-17 10:00N 35°05' E 139°40'611.8
2017-Oct-17 09:30N 35°10' E 139°45'612.3
2017-Oct-17 09:00N 35°16' E 139°46'612.6
2017-Oct-17 08:30N 35°21' E 139°42'612.3
2017-Oct-17 08:00N 35°27' E 139°45'612.7
2017-Oct-17 07:30N 35°32' E 139°50'5 2.2
2017-Oct-17 05:08N 35°36' E 139°46'0 2.3
2017-Oct-17 04:57N 35°36' E 139°46'510.5
2017-Oct-17 04:27N 35°33' E 139°52'1 2.0
2017-Oct-17 03:59N 35°33' E 139°53'0 0.0
2017-Oct-17 00:42N 35°33' E 139°53'1 7.3
2017-Oct-17 00:30N 35°31' E 139°53'510.4
2017-Oct-17 00:00N 35°27' E 139°49'510.1
2017-Oct-16 23:30N 35°23' E 139°46'5 9.7
2017-Oct-16 23:00N 35°18' E 139°45'5 9.6
2017-Oct-16 22:30N 35°14' E 139°47'5 9.2
2017-Oct-16 21:59N 35°09' E 139°46'510.1
2017-Oct-16 21:29N 35°04' E 139°44'510.0
2017-Oct-16 21:00N 35°01' E 139°40'510.7
2017-Oct-16 20:30N 34°58' E 139°34'  
2017-Oct-14 11:56N 34°54' E 139°23'410.5
2017-Oct-14 11:30N 34°56' E 139°27'510.4
2017-Oct-14 11:00N 35°00' E 139°32'611.8
2017-Oct-14 10:30N 35°04' E 139°37'713.2
2017-Oct-14 10:00N 35°08' E 139°43'613.1
2017-Oct-14 09:30N 35°14' E 139°46'612.5
2017-Oct-14 09:00N 35°20' E 139°42'4 8.9
2017-Oct-14 08:31N 35°24' E 139°41'0 0.1
2017-Oct-14 08:00N 35°24' E 139°41'0 0.1
2017-Oct-14 07:30N 35°24' E 139°41'0 0.0
2017-Oct-14 07:00N 35°24' E 139°41'0 0.0
2017-Oct-14 06:30N 35°24' E 139°41'0 0.0
2017-Oct-14 06:00N 35°24' E 139°41'0 0.7
2017-Oct-14 05:30N 35°24' E 139°41'4 8.2
2017-Oct-14 05:00N 35°20' E 139°43'510.6
2017-Oct-14 04:30N 35°16' E 139°47'510.1
2017-Oct-14 04:00N 35°11' E 139°46'510.2
2017-Oct-14 03:30N 35°06' E 139°45'5 9.7
2017-Oct-14 03:00N 35°02' E 139°41'510.6
2017-Oct-14 02:30N 34°59' E 139°35'11 0.3
2017-Oct-12 05:47N 34°54' E 139°24'2 8.4
2017-Oct-12 05:30N 34°55' E 139°26'5 9.1
2017-Oct-12 05:00N 34°58' E 139°30'510.1
2017-Oct-12 04:30N 35°02' E 139°35'510.4
2017-Oct-12 04:00N 35°05' E 139°39'510.8
2017-Oct-12 03:30N 35°09' E 139°44'4 8.5
2017-Oct-12 03:00N 35°13' E 139°46'611.5
2017-Oct-12 02:31N 35°18' E 139°44'611.5
2017-Oct-12 02:01N 35°24' E 139°42'611.9
2017-Oct-12 01:30N 35°28' E 139°47'7 9.4
2017-Oct-12 00:48N 35°35' E 139°48'17 0.7
2017-Oct-11 00:00N 35°17' E 139°45'611.2
2017-Oct-10 23:30N 35°12' E 139°47'612.5
2017-Oct-10 23:00N 35°06' E 139°45'613.0
2017-Oct-10 22:30N 35°02' E 139°39'812.8
2017-Oct-10 21:55N 34°57' E 139°31'  
Track history (hours):
 
Tides and Currents Weather Stations Pressure Air Temp Water Temp Dewpoint Dewpoint Depression Visibility Wind Speed Wind Dir Waves Ship Positions

Hiyodori

Last reported at 2017-Oct-18 17:40 UTC. Time now 2017-Oct-18 18:16 UTC.
Position N 35°34' E 139°53'.

Length 88 m; draft 3.6 m.

Type: Cargo ship. MMSI: 431000132.

Date/timePositionNaut miles runAvg speedWind from/ knotsBaromVisibWave heightAir tempDewpointWater temp
2017-Oct-18 17:40N 35°34' E 139°53'0 0.0
2017-Oct-18 17:28N 35°34' E 139°53'0 0.0
2017-Oct-18 16:58N 35°34' E 139°53'0 0.0
2017-Oct-18 16:28N 35°34' E 139°53'0 0.0
2017-Oct-18 15:58N 35°34' E 139°53'0 0.0
2017-Oct-18 15:28N 35°34' E 139°53'0 0.0
2017-Oct-18 12:34N 35°34' E 139°52'0 0.0
2017-Oct-18 12:28N 35°34' E 139°52'0 0.0
2017-Oct-18 11:58N 35°34' E 139°52'0 0.0
2017-Oct-18 11:22N 35°34' E 139°52'0 0.7
2017-Oct-18 11:00N 35°34' E 139°52'510.3
2017-Oct-18 10:30N 35°29' E 139°51'510.2
2017-Oct-18 10:00N 35°25' E 139°47'510.1
2017-Oct-18 09:30N 35°20' E 139°44'510.0
2017-Oct-18 09:00N 35°16' E 139°47'510.8
2017-Oct-18 08:30N 35°10' E 139°46'611.2
2017-Oct-18 08:00N 35°05' E 139°44'611.0
2017-Oct-18 07:30N 35°01' E 139°39'12 0.6
2017-Oct-17 11:26N 34°57' E 139°26'810.1
2017-Oct-17 10:38N 35°02' E 139°33'110.1
2017-Oct-17 10:30N 35°03' E 139°34'5 9.9
2017-Oct-17 10:00N 35°05' E 139°40'611.8
2017-Oct-17 09:30N 35°10' E 139°45'612.3
2017-Oct-17 09:00N 35°16' E 139°46'612.6
2017-Oct-17 08:30N 35°21' E 139°42'612.3
2017-Oct-17 08:00N 35°27' E 139°45'612.7
2017-Oct-17 07:30N 35°32' E 139°50'5 2.2
2017-Oct-17 05:08N 35°36' E 139°46'0 2.3
2017-Oct-17 04:57N 35°36' E 139°46'510.5
2017-Oct-17 04:27N 35°33' E 139°52'1 2.0
2017-Oct-17 03:59N 35°33' E 139°53'0 0.0
2017-Oct-17 00:42N 35°33' E 139°53'1 7.3
2017-Oct-17 00:30N 35°31' E 139°53'510.4
2017-Oct-17 00:00N 35°27' E 139°49'510.1
2017-Oct-16 23:30N 35°23' E 139°46'5 9.7
2017-Oct-16 23:00N 35°18' E 139°45'5 9.6
2017-Oct-16 22:30N 35°14' E 139°47'5 9.2
2017-Oct-16 21:59N 35°09' E 139°46'510.1
2017-Oct-16 21:29N 35°04' E 139°44'510.0
2017-Oct-16 21:00N 35°01' E 139°40'510.7
2017-Oct-16 20:30N 34°58' E 139°34'  
2017-Oct-14 11:56N 34°54' E 139°23'410.5
2017-Oct-14 11:30N 34°56' E 139°27'510.4
2017-Oct-14 11:00N 35°00' E 139°32'611.8
2017-Oct-14 10:30N 35°04' E 139°37'713.2
2017-Oct-14 10:00N 35°08' E 139°43'613.1
2017-Oct-14 09:30N 35°14' E 139°46'612.5
2017-Oct-14 09:00N 35°20' E 139°42'4 8.9
2017-Oct-14 08:31N 35°24' E 139°41'0 0.1
2017-Oct-14 08:00N 35°24' E 139°41'0 0.1
2017-Oct-14 07:30N 35°24' E 139°41'0 0.0
2017-Oct-14 07:00N 35°24' E 139°41'0 0.0
2017-Oct-14 06:30N 35°24' E 139°41'0 0.0
2017-Oct-14 06:00N 35°24' E 139°41'0 0.7
2017-Oct-14 05:30N 35°24' E 139°41'4 8.2
2017-Oct-14 05:00N 35°20' E 139°43'510.6
2017-Oct-14 04:30N 35°16' E 139°47'510.1
2017-Oct-14 04:00N 35°11' E 139°46'510.2
2017-Oct-14 03:30N 35°06' E 139°45'5 9.7
2017-Oct-14 03:00N 35°02' E 139°41'510.6
2017-Oct-14 02:30N 34°59' E 139°35'11 0.3
2017-Oct-12 05:47N 34°54' E 139°24'2 8.4
2017-Oct-12 05:30N 34°55' E 139°26'5 9.1
2017-Oct-12 05:00N 34°58' E 139°30'510.1
2017-Oct-12 04:30N 35°02' E 139°35'510.4
2017-Oct-12 04:00N 35°05' E 139°39'510.8
2017-Oct-12 03:30N 35°09' E 139°44'4 8.5
2017-Oct-12 03:00N 35°13' E 139°46'611.5
2017-Oct-12 02:31N 35°18' E 139°44'611.5
2017-Oct-12 02:01N 35°24' E 139°42'611.9
2017-Oct-12 01:30N 35°28' E 139°47'7 9.4
2017-Oct-12 00:48N 35°35' E 139°48'17 0.7
2017-Oct-11 00:00N 35°17' E 139°45'611.2
2017-Oct-10 23:30N 35°12' E 139°47'612.5
2017-Oct-10 23:00N 35°06' E 139°45'613.0
2017-Oct-10 22:30N 35°02' E 139°39'812.8
2017-Oct-10 21:55N 34°57' E 139°31'  

Dump ship's entire track history